Time;durP1;ratioP1;P1;durP2;ratioP2;P2;SDS_P1;SDS_P2;PMS_P1;PMS_P2;Temp;Humidity;BMP_temperature;BMP_pressure;BME280_temperature;BME280_humidity;BME280_pressure;Samples;Min_cycle;Max_cycle;Signal;HPM_P1;HPM_P2
2023/01/29 00:02:02;;;;;;;7.43;5.95;;;1.80;99.90;;;;;;5001736;28;20198;-81
2023/01/29 00:04:30;;;;;;;7.40;6.70;;;1.90;99.90;;;;;;4998044;28;20265;-82
2023/01/29 00:07:00;;;;;;;6.85;6.25;;;1.80;99.90;;;;;;4998957;28;20806;-81
2023/01/29 00:09:28;;;;;;;7.85;7.10;;;1.80;99.90;;;;;;5002915;28;20193;-81
2023/01/29 00:11:56;;;;;;;7.72;6.80;;;1.90;99.90;;;;;;5003620;28;20290;-80
2023/01/29 00:14:26;;;;;;;7.53;6.80;;;1.90;99.90;;;;;;4996423;28;20232;-81
2023/01/29 00:16:54;;;;;;;6.97;6.10;;;1.90;99.90;;;;;;5001245;28;20227;-80
2023/01/29 00:19:22;;;;;;;8.40;6.72;;;1.90;99.90;;;;;;5000564;28;20199;-81
2023/01/29 00:21:50;;;;;;;8.05;7.22;;;1.90;99.90;;;;;;4997760;28;20212;-80
2023/01/29 00:24:20;;;;;;;6.28;5.78;;;1.90;99.90;;;;;;4999113;28;20227;-80
2023/01/29 00:26:49;;;;;;;6.30;5.80;;;1.90;99.90;;;;;;4999582;28;20229;-80
2023/01/29 00:29:17;;;;;;;9.35;6.55;;;1.80;99.90;;;;;;5002256;28;20892;-81
2023/01/29 00:31:46;;;;;;;6.78;6.07;;;1.80;99.90;;;;;;4992791;28;20194;-81
2023/01/29 00:34:14;;;;;;;9.20;7.22;;;1.80;99.90;;;;;;4997770;28;20647;-80
2023/01/29 00:36:44;;;;;;;6.95;6.25;;;1.80;99.90;;;;;;5000941;28;20763;-82
2023/01/29 00:39:12;;;;;;;8.55;5.72;;;1.90;99.90;;;;;;4999811;28;20207;-82
2023/01/29 00:49:55;;;;;;;7.25;6.55;;;1.80;99.90;;;;;;5003013;28;20225;-81
2023/01/29 00:52:23;;;;;;;7.05;6.35;;;1.80;99.90;;;;;;4997338;28;20208;-80
2023/01/29 00:54:52;;;;;;;8.65;6.68;;;1.90;99.90;;;;;;5000975;28;20302;-79
2023/01/29 00:57:22;;;;;;;6.80;6.13;;;1.70;99.90;;;;;;4996715;28;20219;-80
2023/01/29 00:59:50;;;;;;;8.15;6.50;;;1.70;99.90;;;;;;5002619;28;20280;-80
2023/01/29 01:05:01;;;;;;;7.13;5.75;;;1.80;99.90;;;;;;4980070;28;20234;-80
2023/01/29 01:07:30;;;;;;;7.25;6.57;;;1.90;99.90;;;;;;4999691;28;20290;-80
2023/01/29 01:12:45;;;;;;;5.90;4.85;;;1.70;99.90;;;;;;4997017;28;20233;-79
2023/01/29 01:15:14;;;;;;;6.05;5.45;;;1.90;99.90;;;;;;5004776;28;20219;-80
2023/01/29 01:17:42;;;;;;;6.10;5.55;;;1.90;99.90;;;;;;4999923;28;20562;-81
2023/01/29 01:20:11;;;;;;;6.55;5.90;;;1.80;99.90;;;;;;5003230;28;20199;-80
2023/01/29 01:22:40;;;;;;;6.13;5.55;;;1.90;99.90;;;;;;5005639;28;20210;-82
2023/01/29 01:25:09;;;;;;;6.68;6.07;;;1.90;99.90;;;;;;5006498;28;20211;-83
2023/01/29 01:27:39;;;;;;;6.38;5.70;;;1.90;99.90;;;;;;5008725;28;20210;-82
2023/01/29 01:30:13;;;;;;;6.00;5.15;;;1.80;99.90;;;;;;5017192;28;20631;-82
2023/01/29 01:32:42;;;;;;;6.65;5.80;;;1.70;99.90;;;;;;5000043;28;20203;-82
2023/01/29 01:35:12;;;;;;;10.60;6.10;;;1.60;99.90;;;;;;5004913;28;20215;-81
2023/01/29 01:37:41;;;;;;;6.97;6.13;;;1.70;99.90;;;;;;5004056;28;20214;-83
2023/01/29 01:40:16;;;;;;;6.38;5.05;;;1.80;99.90;;;;;;5001539;28;20220;-82
2023/01/29 01:42:47;;;;;;;6.35;5.20;;;1.70;99.90;;;;;;5016448;28;20894;-82
2023/01/29 01:45:23;;;;;;;7.10;5.93;;;1.70;99.90;;;;;;5005356;28;20206;-81
2023/01/29 01:47:54;;;;;;;8.43;4.63;;;1.80;99.90;;;;;;4998938;28;20202;-81
2023/01/29 01:50:27;;;;;;;3.80;3.50;;;1.80;99.90;;;;;;4999901;28;20191;-81
2023/01/29 01:53:03;;;;;;;4.35;3.95;;;1.90;99.90;;;;;;4997849;28;20220;-81
2023/01/29 01:55:33;;;;;;;4.90;4.40;;;1.80;99.90;;;;;;4998066;28;20269;-81
2023/01/29 01:58:06;;;;;;;4.45;4.05;;;1.70;99.90;;;;;;5000577;28;20218;-81
2023/01/29 02:00:36;;;;;;;4.70;4.05;;;1.80;99.90;;;;;;5003795;28;20198;-81
2023/01/29 02:11:31;;;;;;;4.45;4.10;;;1.80;99.90;;;;;;5005402;28;21814;-82
2023/01/29 02:13:59;;;;;;;6.30;5.47;;;1.80;99.90;;;;;;4999045;28;20206;-80
2023/01/29 02:16:29;;;;;;;5.65;5.10;;;1.80;99.90;;;;;;5000742;28;20223;-81
2023/01/29 02:18:57;;;;;;;4.90;3.65;;;1.80;99.90;;;;;;5005955;28;20246;-82
2023/01/29 02:21:56;;;;;;;4.75;4.35;;;1.90;99.90;;;;;;4998514;28;20210;-81
2023/01/29 02:25:08;;;;;;;6.25;4.97;;;1.60;99.90;;;;;;4965238;28;20214;-80
2023/01/29 02:28:13;;;;;;;4.68;4.00;;;1.80;99.90;;;;;;5006870;28;20306;-81
2023/01/29 02:30:45;;;;;;;6.90;4.95;;;1.80;99.90;;;;;;5004653;28;20198;-81
2023/01/29 02:33:21;;;;;;;5.15;4.65;;;1.70;99.90;;;;;;4997192;28;20210;-81
2023/01/29 02:35:59;;;;;;;4.82;4.30;;;1.60;99.90;;;;;;5001682;28;20575;-81
2023/01/29 02:38:36;;;;;;;5.00;4.50;;;1.50;99.90;;;;;;4999907;28;20448;-81
2023/01/29 02:41:09;;;;;;;4.30;3.90;;;1.70;99.90;;;;;;5001181;28;20192;-81
2023/01/29 02:43:46;;;;;;;5.85;5.07;;;1.70;99.90;;;;;;4998127;28;20214;-81
2023/01/29 02:46:23;;;;;;;5.10;4.60;;;1.80;99.90;;;;;;5002861;28;20233;-80
2023/01/29 02:48:59;;;;;;;5.65;5.13;;;1.70;99.90;;;;;;4999306;28;20199;-81
2023/01/29 02:51:32;;;;;;;5.28;4.72;;;1.70;99.90;;;;;;5002321;28;20203;-81
2023/01/29 02:54:07;;;;;;;5.82;5.32;;;1.70;95.20;;;;;;5002619;28;20721;-82
2023/01/29 02:56:42;;;;;;;4.78;4.10;;;1.70;99.20;;;;;;5002545;28;20254;-80
2023/01/29 02:59:16;;;;;;;5.10;4.68;;;1.70;99.90;;;;;;5018088;28;20290;-81
2023/01/29 03:01:49;;;;;;;4.88;4.47;;;1.70;88.20;;;;;;4998991;28;20297;-79
2023/01/29 03:04:20;;;;;;;5.72;4.20;;;1.70;22.10;;;;;;5002703;28;20202;-80
2023/01/29 03:06:53;;;;;;;4.93;4.45;;;1.70;1.00;;;;;;5002437;28;20210;-81
2023/01/29 03:09:29;;;;;;;4.75;4.35;;;1.60;47.70;;;;;;5002598;28;20302;-80
2023/01/29 03:12:01;;;;;;;4.47;3.67;;;1.60;94.30;;;;;;5001577;28;20204;-80
2023/01/29 03:17:22;;;;;;;5.05;4.65;;;1.60;90.60;;;;;;5003018;28;20221;-80
2023/01/29 03:19:51;;;;;;;7.95;5.00;;;1.60;39.50;;;;;;5008450;28;20718;-81
2023/01/29 03:22:22;;;;;;;5.32;4.50;;;1.60;93.50;;;;;;5003212;28;20968;-81
2023/01/29 03:33:31;;;;;;;4.88;4.38;;;1.60;63.10;;;;;;5003798;28;20205;-82
2023/01/29 03:36:08;;;;;;;5.07;4.68;;;1.70;30.00;;;;;;5006930;28;20217;-81
2023/01/29 03:38:37;;;;;;;4.90;4.43;;;1.70;18.20;;;;;;5001567;28;20202;-79
2023/01/29 03:41:10;;;;;;;5.78;5.20;;;1.60;1.00;;;;;;5005810;28;20674;-82
2023/01/29 03:43:45;;;;;;;4.95;4.55;;;1.70;19.10;;;;;;5011406;28;20210;-82
2023/01/29 03:46:21;;;;;;;6.53;5.25;;;1.80;1.00;;;;;;5003236;28;20233;-83
2023/01/29 03:48:58;;;;;;;5.90;4.60;;;1.60;1.00;;;;;;5004620;28;20200;-82
2023/01/29 03:51:32;;;;;;;4.65;4.20;;;1.70;30.40;;;;;;5004283;28;20780;-81
2023/01/29 03:54:09;;;;;;;4.35;3.95;;;1.90;1.00;;;;;;5006879;28;20652;-82
2023/01/29 03:56:48;;;;;;;5.88;4.65;;;1.80;1.00;;;;;;5000507;28;20312;-83
2023/01/29 03:59:23;;;;;;;5.10;4.60;;;1.80;1.00;;;;;;5000329;28;20265;-83
2023/01/29 04:01:56;;;;;;;4.57;4.13;;;1.70;1.00;;;;;;4999297;28;20203;-83
2023/01/29 04:04:27;;;;;;;5.22;4.70;;;1.60;1.00;;;;;;5001183;28;20205;-83
2023/01/29 04:07:04;;;;;;;4.65;4.25;;;1.70;1.00;;;;;;5004421;28;20218;-83
2023/01/29 04:09:36;;;;;;;6.30;4.30;;;1.70;1.00;;;;;;5002737;28;20224;-82
2023/01/29 04:12:08;;;;;;;4.85;4.35;;;1.60;1.00;;;;;;5003673;28;20194;-81
2023/01/29 04:14:37;;;;;;;4.18;3.55;;;1.50;1.00;;;;;;4996296;28;20807;-82
2023/01/29 04:17:12;;;;;;;5.97;4.70;;;1.60;1.00;;;;;;4999120;28;20682;-83
2023/01/29 04:19:41;;;;;;;5.18;4.78;;;1.50;1.00;;;;;;5010384;28;20204;-83
2023/01/29 04:22:15;;;;;;;5.45;4.50;;;1.50;1.00;;;;;;4997461;28;20202;-82
2023/01/29 04:24:44;;;;;;;4.88;4.47;;;1.60;1.20;;;;;;5005771;28;20194;-82
2023/01/29 04:27:25;;;;;;;5.03;4.53;;;1.60;1.00;;;;;;4999813;28;20205;-81
2023/01/29 04:30:14;;;;;;;5.07;4.40;;;1.50;1.00;;;;;;5001442;28;20206;-81
2023/01/29 04:32:57;;;;;;;7.43;5.15;;;1.50;1.00;;;;;;4999104;28;20571;-82
2023/01/29 04:35:31;;;;;;;5.10;4.70;;;1.50;1.00;;;;;;5002378;28;20249;-81
2023/01/29 04:38:11;;;;;;;4.75;4.35;;;1.60;1.00;;;;;;5010321;28;20882;-81
2023/01/29 04:40:50;;;;;;;4.70;4.28;;;1.50;1.00;;;;;;5001835;28;20221;-83
2023/01/29 04:43:26;;;;;;;5.30;4.80;;;1.50;1.00;;;;;;4999506;28;20256;-81
2023/01/29 04:46:08;;;;;;;5.85;4.95;;;1.50;1.00;;;;;;4994717;28;20281;-81
2023/01/29 04:48:49;;;;;;;7.15;5.22;;;1.40;1.00;;;;;;5003111;28;20195;-82
2023/01/29 04:51:22;;;;;;;5.20;3.90;;;1.40;1.00;;;;;;5001254;28;20205;-82
2023/01/29 04:53:58;;;;;;;5.20;4.70;;;1.40;1.00;;;;;;4999289;28;20719;-79
2023/01/29 04:56:30;;;;;;;5.90;4.70;;;1.40;1.00;;;;;;4996792;28;20399;-79
2023/01/29 04:59:05;;;;;;;7.32;5.22;;;1.40;1.00;;;;;;5004150;28;20205;-79
2023/01/29 05:01:35;;;;;;;5.05;4.50;;;1.60;1.00;;;;;;4998972;28;20675;-80
2023/01/29 05:04:09;;;;;;;5.28;4.78;;;1.60;1.00;;;;;;5002709;28;20203;-81
2023/01/29 05:06:39;;;;;;;4.80;4.38;;;1.50;1.00;;;;;;5004219;28;20218;-81
2023/01/29 05:09:09;;;;;;;5.22;4.72;;;1.40;1.00;;;;;;5004116;28;20221;-81
2023/01/29 05:11:37;;;;;;;5.13;4.50;;;1.50;1.00;;;;;;5003554;28;20910;-80
2023/01/29 05:14:09;;;;;;;5.40;4.88;;;1.50;1.00;;;;;;5003590;28;20203;-80
2023/01/29 05:16:42;;;;;;;6.70;5.30;;;1.50;1.00;;;;;;5004992;28;21182;-80
2023/01/29 05:19:14;;;;;;;5.60;5.20;;;1.50;1.00;;;;;;5003774;28;20665;-81
2023/01/29 05:21:45;;;;;;;6.22;5.10;;;1.50;1.00;;;;;;5002757;28;20207;-80
2023/01/29 05:24:15;;;;;;;6.65;5.13;;;1.50;3.20;;;;;;5002019;28;20224;-80
2023/01/29 05:29:30;;;;;;;5.50;5.00;;;1.60;1.00;;;;;;5005740;28;20208;-79
2023/01/29 05:31:59;;;;;;;6.18;5.20;;;1.50;1.00;;;;;;5000013;28;20887;-80
2023/01/29 05:34:28;;;;;;;5.50;4.88;;;1.50;1.00;;;;;;5003840;28;20219;-80
2023/01/29 05:36:56;;;;;;;6.32;4.65;;;1.50;1.00;;;;;;5000007;28;20218;-81
2023/01/29 05:39:24;;;;;;;5.05;4.55;;;1.50;1.00;;;;;;5003448;28;20851;-81
2023/01/29 05:41:53;;;;;;;6.20;5.35;;;1.70;1.00;;;;;;5002263;28;20196;-81
2023/01/29 05:44:21;;;;;;;8.18;4.38;;;1.50;1.00;;;;;;4999280;28;20291;-81
2023/01/29 05:46:50;;;;;;;10.82;6.95;;;1.40;1.00;;;;;;5005248;28;20223;-81
2023/01/29 05:49:19;;;;;;;18.77;9.60;;;1.40;1.00;;;;;;5001306;28;20238;-80
2023/01/29 05:51:48;;;;;;;13.88;6.90;;;1.40;7.90;;;;;;5003317;28;20207;-80
2023/01/29 05:54:17;;;;;;;6.13;5.40;;;1.40;1.00;;;;;;5007156;28;20217;-81
2023/01/29 05:56:45;;;;;;;5.30;4.65;;;1.50;1.00;;;;;;5002472;28;20216;-80
2023/01/29 05:59:14;;;;;;;5.03;4.32;;;1.60;1.00;;;;;;5006067;28;20745;-81
2023/01/29 06:01:42;;;;;;;4.30;3.55;;;1.70;1.00;;;;;;4999440;28;20198;-80
2023/01/29 06:04:11;;;;;;;4.88;4.47;;;1.70;1.00;;;;;;4997086;28;20223;-79
2023/01/29 06:06:39;;;;;;;4.57;4.00;;;1.70;1.00;;;;;;5003517;28;20698;-79
2023/01/29 06:09:10;;;;;;;4.88;4.35;;;1.70;1.00;;;;;;5005122;28;20207;-80
2023/01/29 06:11:38;;;;;;;4.38;3.92;;;1.70;1.00;;;;;;5006882;28;20241;-82
2023/01/29 06:14:06;;;;;;;5.03;4.63;;;1.60;99.90;;;;;;5003977;28;20198;-81
2023/01/29 06:16:34;;;;;;;5.00;4.47;;;1.60;99.90;;;;;;5002002;28;20227;-81
2023/01/29 06:19:03;;;;;;;4.45;4.05;;;1.60;99.90;;;;;;5000713;28;20698;-81
2023/01/29 06:21:31;;;;;;;4.85;4.45;;;1.60;99.90;;;;;;5009572;28;20672;-82
2023/01/29 06:23:59;;;;;;;4.68;4.32;;;1.70;99.90;;;;;;5004513;28;20194;-82
2023/01/29 06:26:28;;;;;;;6.07;5.50;;;1.70;99.90;;;;;;5003051;28;20895;-82
2023/01/29 06:28:56;;;;;;;4.75;4.30;;;1.60;1.00;;;;;;5002969;28;20194;-82
2023/01/29 06:31:25;;;;;;;5.63;5.03;;;1.60;99.90;;;;;;5006322;28;20206;-81
2023/01/29 06:34:06;;;;;;;5.10;4.30;;;1.70;99.90;;;;;;5001250;28;20266;-81
2023/01/29 06:36:34;;;;;;;5.90;5.40;;;1.70;99.90;;;;;;5005268;28;20232;-82
2023/01/29 06:39:03;;;;;;;5.13;4.75;;;1.70;99.90;;;;;;5003078;28;20215;-81
2023/01/29 06:41:33;;;;;;;5.07;4.68;;;1.60;99.90;;;;;;5015640;28;20221;-81
2023/01/29 06:44:01;;;;;;;4.53;4.13;;;1.50;1.00;;;;;;4998807;28;20211;-82
2023/01/29 06:46:29;;;;;;;5.07;4.57;;;1.50;1.00;;;;;;5005942;28;20246;-82
2023/01/29 06:48:59;;;;;;;4.90;4.50;;;1.60;1.00;;;;;;4999210;28;20655;-81
2023/01/29 06:51:27;;;;;;;6.18;4.75;;;1.50;99.90;;;;;;4999890;28;20199;-82
2023/01/29 06:53:55;;;;;;;5.53;5.03;;;1.50;99.90;;;;;;4999953;28;20211;-81
2023/01/29 06:56:24;;;;;;;5.15;4.75;;;1.60;1.00;;;;;;5000968;28;20230;-81
2023/01/29 06:58:54;;;;;;;5.97;5.40;;;1.80;99.90;;;;;;5001079;28;20237;-80
2023/01/29 07:01:22;;;;;;;6.00;5.40;;;1.80;99.90;;;;;;5001222;28;20199;-81
2023/01/29 07:04:03;;;;;;;4.65;4.25;;;1.80;99.90;;;;;;4999875;28;20196;-82
2023/01/29 07:06:31;;;;;;;7.00;5.25;;;1.70;99.90;;;;;;5008899;28;20233;-80
2023/01/29 07:09:00;;;;;;;4.97;4.55;;;1.60;99.90;;;;;;4999105;28;20585;-80
2023/01/29 07:11:28;;;;;;;8.30;5.30;;;1.60;99.90;;;;;;5000056;28;20932;-80
2023/01/29 07:13:57;;;;;;;5.45;4.95;;;1.50;99.90;;;;;;5007571;28;20226;-80
2023/01/29 07:16:25;;;;;;;7.10;5.20;;;1.50;99.90;;;;;;5000744;28;20222;-78
2023/01/29 07:18:54;;;;;;;6.38;5.30;;;1.60;99.90;;;;;;4997881;28;20243;-79
2023/01/29 07:21:22;;;;;;;6.80;5.32;;;1.50;99.90;;;;;;4999125;28;20233;-80
2023/01/29 07:23:50;;;;;;;6.20;5.60;;;1.60;99.90;;;;;;5002069;28;20202;-79
2023/01/29 07:26:18;;;;;;;7.47;6.82;;;1.70;99.90;;;;;;4994259;28;20309;-80
2023/01/29 07:28:46;;;;;;;6.45;5.53;;;1.70;99.90;;;;;;5006820;28;20205;-79
2023/01/29 07:31:16;;;;;;;5.70;5.20;;;1.70;99.90;;;;;;5001024;28;20563;-80
2023/01/29 07:33:44;;;;;;;10.15;6.90;;;1.70;99.90;;;;;;4998534;28;20204;-81
2023/01/29 07:36:15;;;;;;;10.55;7.25;;;1.70;99.90;;;;;;4999692;28;20231;-81
2023/01/29 07:38:43;;;;;;;7.10;6.00;;;1.60;99.90;;;;;;5003820;28;20211;-80
2023/01/29 07:41:12;;;;;;;6.72;6.10;;;1.80;99.90;;;;;;5002449;28;20230;-80
2023/01/29 07:43:40;;;;;;;8.13;7.32;;;1.70;99.90;;;;;;4997225;28;20293;-79
2023/01/29 07:46:08;;;;;;;7.40;6.70;;;1.80;99.90;;;;;;4996015;28;20277;-78
2023/01/29 07:48:38;;;;;;;7.80;6.53;;;1.80;99.90;;;;;;5000729;28;20288;-81
2023/01/29 07:51:07;;;;;;;6.88;6.18;;;1.70;99.90;;;;;;4997638;28;20198;-80
2023/01/29 07:53:35;;;;;;;7.35;6.75;;;1.70;99.90;;;;;;5000822;28;20201;-80
2023/01/29 07:56:04;;;;;;;7.38;6.68;;;1.70;99.90;;;;;;4998190;28;20213;-79
2023/01/29 07:58:32;;;;;;;5.70;5.20;;;1.60;99.90;;;;;;4999516;28;20218;-81
2023/01/29 08:01:06;;;;;;;6.38;5.78;;;1.70;99.90;;;;;;4996876;28;20202;-81
2023/01/29 08:03:34;;;;;;;8.43;6.43;;;1.70;99.90;;;;;;4994997;28;20285;-81
2023/01/29 08:06:04;;;;;;;7.18;6.50;;;1.80;99.90;;;;;;5000401;28;20219;-81
2023/01/29 08:08:33;;;;;;;7.50;6.05;;;1.80;99.90;;;;;;5000682;28;20194;-82
2023/01/29 08:11:02;;;;;;;6.22;5.68;;;1.80;99.90;;;;;;5009000;28;20203;-80
2023/01/29 08:13:30;;;;;;;6.78;5.63;;;1.90;99.90;;;;;;4997889;28;20434;-81
2023/01/29 08:16:01;;;;;;;7.00;6.20;;;1.80;99.90;;;;;;5003996;28;20269;-82
2023/01/29 08:18:30;;;;;;;6.22;5.72;;;1.90;99.90;;;;;;5003444;28;20294;-81
2023/01/29 08:21:02;;;;;;;7.60;6.00;;;1.80;99.90;;;;;;5002306;28;20233;-81
2023/01/29 08:23:31;;;;;;;6.40;5.80;;;1.80;99.90;;;;;;4998735;28;20730;-81
2023/01/29 08:26:02;;;;;;;9.65;7.70;;;1.90;99.90;;;;;;4999634;28;20214;-80
2023/01/29 08:28:30;;;;;;;6.88;5.97;;;1.90;99.90;;;;;;5004933;28;20191;-80
2023/01/29 08:30:58;;;;;;;5.57;5.18;;;1.90;99.90;;;;;;4999828;28;20249;-81
2023/01/29 08:33:28;;;;;;;6.60;6.05;;;1.90;99.90;;;;;;5004080;28;20307;-80
2023/01/29 08:36:07;;;;;;;6.47;5.88;;;1.70;99.90;;;;;;5008880;28;20233;-81
2023/01/29 08:38:36;;;;;;;6.30;5.75;;;1.70;99.90;;;;;;5001254;28;20250;-81
2023/01/29 08:41:05;;;;;;;7.30;6.55;;;1.70;99.90;;;;;;4999703;28;20251;-82
2023/01/29 08:43:34;;;;;;;6.20;5.60;;;1.70;99.90;;;;;;5001578;28;20698;-82
2023/01/29 08:46:04;;;;;;;9.60;8.60;;;1.80;99.90;;;;;;5005288;28;20223;-83
2023/01/29 08:48:32;;;;;;;7.68;6.53;;;1.80;99.90;;;;;;5002232;28;20202;-83
2023/01/29 08:51:03;;;;;;;6.57;5.97;;;1.90;99.90;;;;;;5001591;28;20199;-82
2023/01/29 08:53:31;;;;;;;6.43;5.88;;;1.90;99.90;;;;;;4999708;28;20237;-83
2023/01/29 08:56:01;;;;;;;6.35;5.78;;;1.90;99.90;;;;;;5006720;28;20226;-83
2023/01/29 08:58:29;;;;;;;5.95;5.43;;;1.80;99.90;;;;;;5002752;28;21055;-83
2023/01/29 09:01:04;;;;;;;6.30;5.70;;;1.80;99.90;;;;;;5006227;28;20254;-83
2023/01/29 09:03:33;;;;;;;6.70;6.05;;;1.80;99.90;;;;;;4999363;28;20285;-80
2023/01/29 09:06:01;;;;;;;5.93;5.30;;;1.90;99.90;;;;;;5000712;28;20219;-82
2023/01/29 09:08:29;;;;;;;6.20;5.60;;;2.00;99.90;;;;;;5001199;28;20549;-81
2023/01/29 09:10:59;;;;;;;6.90;6.20;;;2.10;99.90;;;;;;5001137;28;20207;-81
2023/01/29 09:13:29;;;;;;;7.28;6.15;;;2.00;99.90;;;;;;4996120;28;20202;-83
2023/01/29 09:15:59;;;;;;;7.07;6.40;;;2.00;99.90;;;;;;4995506;28;20231;-82
2023/01/29 09:18:28;;;;;;;7.88;7.07;;;2.10;99.90;;;;;;4998739;28;20190;-82
2023/01/29 09:20:57;;;;;;;7.22;6.63;;;2.10;99.90;;;;;;5004426;28;20211;-82
2023/01/29 09:23:25;;;;;;;6.32;5.80;;;2.10;99.90;;;;;;5001378;28;20214;-83
2023/01/29 09:25:53;;;;;;;6.53;5.93;;;2.10;99.90;;;;;;5003296;28;20223;-81
2023/01/29 09:28:22;;;;;;;7.75;6.95;;;2.20;99.90;;;;;;4999179;28;20372;-82
2023/01/29 09:30:52;;;;;;;8.23;6.80;;;2.30;99.90;;;;;;4988661;28;20198;-81
2023/01/29 09:33:20;;;;;;;6.32;5.82;;;2.30;99.90;;;;;;4985236;28;20203;-81
2023/01/29 09:35:49;;;;;;;6.97;6.20;;;2.20;99.90;;;;;;4984549;28;20549;-81
2023/01/29 09:38:17;;;;;;;6.53;6.00;;;2.20;99.90;;;;;;4989789;28;20273;-80
2023/01/29 09:40:55;;;;;;;6.20;5.70;;;2.10;99.90;;;;;;4990103;28;20225;-81
2023/01/29 09:43:31;;;;;;;7.18;6.53;;;2.20;99.90;;;;;;4990385;28;20218;-82
2023/01/29 09:46:05;;;;;;;6.72;5.97;;;2.20;99.90;;;;;;4983899;28;20318;-81
2023/01/29 09:48:35;;;;;;;7.28;6.70;;;2.20;99.90;;;;;;4989934;28;20289;-80
2023/01/29 09:51:10;;;;;;;6.43;5.80;;;2.20;99.90;;;;;;4989451;28;20207;-81
2023/01/29 09:53:46;;;;;;;6.50;5.80;;;2.30;99.90;;;;;;4988686;28;20665;-80
2023/01/29 09:56:19;;;;;;;6.13;5.47;;;2.30;99.90;;;;;;4987490;28;20222;-82
2023/01/29 09:58:47;;;;;;;6.90;5.95;;;2.30;99.90;;;;;;4989508;28;20342;-81
2023/01/29 10:01:24;;;;;;;7.57;6.82;;;2.30;99.90;;;;;;4993142;28;20225;-82
2023/01/29 10:04:46;;;;;;;6.05;5.47;;;2.30;99.90;;;;;;4989722;28;20199;-82
2023/01/29 10:07:38;;;;;;;7.68;6.72;;;2.40;99.90;;;;;;4929328;28;21047;-82
2023/01/29 10:10:27;;;;;;;8.48;7.30;;;2.30;99.90;;;;;;4992576;28;20699;-82
2023/01/29 10:13:06;;;;;;;8.00;7.20;;;2.30;99.90;;;;;;4994054;28;20203;-83
2023/01/29 10:15:59;;;;;;;7.03;6.35;;;2.30;99.90;;;;;;4998190;28;20302;-81
2023/01/29 10:18:59;;;;;;;7.60;7.00;;;2.30;99.90;;;;;;4996401;28;20634;-83
2023/01/29 10:22:04;;;;;;;7.18;6.45;;;2.50;99.90;;;;;;4994387;28;20227;-84
2023/01/29 10:24:38;;;;;;;8.50;6.40;;;2.50;99.90;;;;;;4984140;28;20272;-81
2023/01/29 10:27:13;;;;;;;6.97;6.40;;;2.50;99.90;;;;;;5001323;28;20229;-82
2023/01/29 10:29:43;;;;;;;7.82;7.03;;;2.40;99.90;;;;;;4989722;28;20948;-83
2023/01/29 10:32:16;;;;;;;9.48;8.48;;;2.60;99.90;;;;;;4992054;28;20210;-83
2023/01/29 10:34:50;;;;;;;7.07;6.30;;;2.70;99.90;;;;;;4992483;28;20208;-83
2023/01/29 10:37:23;;;;;;;9.15;7.30;;;2.90;99.90;;;;;;4994825;28;20918;-79
2023/01/29 10:39:51;;;;;;;8.82;7.35;;;2.80;99.90;;;;;;4992091;28;20213;-83
2023/01/29 10:42:30;;;;;;;8.55;7.68;;;2.80;99.90;;;;;;4992413;28;20199;-82
2023/01/29 10:45:19;;;;;;;7.65;6.85;;;2.70;99.90;;;;;;4991858;28;20713;-84
2023/01/29 10:48:05;;;;;;;8.52;7.30;;;2.70;99.90;;;;;;4993569;28;20637;-82
2023/01/29 10:50:49;;;;;;;6.75;6.05;;;2.70;99.90;;;;;;4992700;28;20199;-82
2023/01/29 10:53:39;;;;;;;6.53;5.82;;;2.90;99.90;;;;;;4990868;28;20204;-82
2023/01/29 10:56:20;;;;;;;8.02;7.22;;;2.90;99.90;;;;;;4994744;28;20717;-82
2023/01/29 10:58:53;;;;;;;7.22;6.63;;;2.80;99.90;;;;;;4994528;28;20293;-83
2023/01/29 11:01:22;;;;;;;7.50;6.72;;;2.80;99.90;;;;;;4995887;28;20917;-83
2023/01/29 11:03:58;;;;;;;7.03;6.43;;;2.90;99.90;;;;;;4991568;28;20204;-83
2023/01/29 11:06:30;;;;;;;8.07;7.28;;;2.90;99.90;;;;;;4996260;28;20262;-81
2023/01/29 11:09:07;;;;;;;7.40;6.70;;;3.00;99.90;;;;;;4996005;28;20199;-83
2023/01/29 11:11:41;;;;;;;7.60;6.70;;;3.00;99.90;;;;;;4999320;28;20226;-83
2023/01/29 11:14:14;;;;;;;6.60;6.00;;;3.10;99.90;;;;;;4997359;28;20212;-83
2023/01/29 11:16:45;;;;;;;7.03;5.35;;;3.10;99.90;;;;;;4997494;28;20255;-83
2023/01/29 11:19:14;;;;;;;5.85;5.35;;;3.20;99.90;;;;;;5002069;28;20949;-83
2023/01/29 11:21:57;;;;;;;6.93;6.22;;;3.30;99.90;;;;;;4993732;28;21251;-83
2023/01/29 11:24:26;;;;;;;6.22;5.53;;;3.30;99.90;;;;;;4994462;28;20576;-84
2023/01/29 11:26:57;;;;;;;7.07;6.35;;;3.30;99.90;;;;;;4992897;28;20308;-84
2023/01/29 11:29:44;;;;;;;7.80;6.55;;;3.20;99.90;;;;;;4994204;28;20194;-84
2023/01/29 11:32:15;;;;;;;7.85;7.07;;;3.20;99.90;;;;;;4998299;28;20208;-85
2023/01/29 11:35:03;;;;;;;7.60;6.80;;;3.20;99.90;;;;;;4990538;28;20441;-84
2023/01/29 11:37:38;;;;;;;7.35;6.63;;;3.30;99.90;;;;;;4995112;28;20202;-84
2023/01/29 11:40:36;;;;;;;7.25;6.38;;;3.20;99.90;;;;;;4995218;28;20262;-84
2023/01/29 11:43:19;;;;;;;9.50;7.07;;;3.10;99.90;;;;;;4988999;28;20249;-81
2023/01/29 11:45:49;;;;;;;8.30;7.07;;;3.20;99.90;;;;;;4991855;28;20218;-84
2023/01/29 11:48:19;;;;;;;9.00;7.93;;;3.20;99.90;;;;;;4992467;28;20902;-84
2023/01/29 11:50:53;;;;;;;10.07;7.35;;;3.30;99.90;;;;;;4992586;28;20197;-82
2023/01/29 11:53:32;;;;;;;7.40;6.80;;;3.40;99.90;;;;;;4996367;28;20204;-84
2023/01/29 11:56:03;;;;;;;7.03;6.38;;;3.40;99.90;;;;;;4993974;28;20299;-83
2023/01/29 11:58:34;;;;;;;8.82;7.28;;;3.40;99.90;;;;;;4996548;28;20203;-82
2023/01/29 12:01:03;;;;;;;7.22;6.30;;;3.50;99.90;;;;;;4995630;28;20216;-84
2023/01/29 12:03:39;;;;;;;8.15;6.40;;;3.40;99.90;;;;;;4993003;28;20227;-83
2023/01/29 12:06:17;;;;;;;7.78;6.82;;;3.30;99.90;;;;;;4993094;28;20231;-83
2023/01/29 12:08:55;;;;;;;7.45;6.75;;;3.30;99.90;;;;;;5002645;28;20520;-84
2023/01/29 12:11:30;;;;;;;12.93;6.78;;;3.30;99.90;;;;;;5001017;28;20203;-84
2023/01/29 12:14:00;;;;;;;10.38;8.02;;;3.20;99.90;;;;;;4993796;28;20195;-83
2023/01/29 12:16:33;;;;;;;8.85;7.03;;;3.30;99.90;;;;;;4991783;28;20217;-82
2023/01/29 12:19:11;;;;;;;9.10;6.80;;;3.30;99.90;;;;;;4994984;28;21021;-83
2023/01/29 12:21:46;;;;;;;12.85;8.60;;;3.40;99.90;;;;;;4993584;28;20551;-84
2023/01/29 12:24:28;;;;;;;8.65;7.65;;;3.50;99.90;;;;;;5006031;28;20289;-84
2023/01/29 12:27:05;;;;;;;6.93;6.20;;;3.50;99.90;;;;;;4994362;28;20231;-83
2023/01/29 12:29:41;;;;;;;9.00;7.63;;;3.60;99.90;;;;;;4995129;28;20794;-83
2023/01/29 12:32:20;;;;;;;10.77;8.88;;;3.70;99.90;;;;;;4996796;28;20202;-83
2023/01/29 12:34:52;;;;;;;11.07;8.15;;;3.70;99.90;;;;;;4998782;28;22333;-83
2023/01/29 12:37:27;;;;;;;7.40;6.28;;;3.80;99.90;;;;;;4996680;28;20653;-84
2023/01/29 12:39:57;;;;;;;10.18;7.00;;;3.80;99.90;;;;;;5030823;28;20205;-83
2023/01/29 12:42:26;;;;;;;8.45;7.07;;;3.80;99.90;;;;;;4998609;28;20226;-82
2023/01/29 12:44:58;;;;;;;8.60;6.97;;;3.70;99.90;;;;;;4999273;28;20208;-83
2023/01/29 12:47:31;;;;;;;8.45;6.75;;;3.80;99.90;;;;;;4994355;28;20390;-83
2023/01/29 12:50:05;;;;;;;7.57;6.50;;;3.70;99.90;;;;;;4995652;28;21008;-81
2023/01/29 12:52:41;;;;;;;11.25;7.35;;;3.70;99.90;;;;;;4992945;28;20573;-83
2023/01/29 12:55:19;;;;;;;7.13;6.13;;;3.70;99.90;;;;;;4994568;28;20229;-84
2023/01/29 12:57:53;;;;;;;6.75;6.05;;;3.80;99.90;;;;;;4994301;28;20212;-83
2023/01/29 13:00:25;;;;;;;7.25;5.95;;;3.60;99.90;;;;;;4992297;28;20301;-84
2023/01/29 13:02:59;;;;;;;8.98;7.18;;;3.70;99.90;;;;;;4992517;28;20227;-82
2023/01/29 13:05:30;;;;;;;8.30;6.85;;;3.80;99.90;;;;;;4991120;28;20554;-84
2023/01/29 13:08:05;;;;;;;7.60;6.80;;;3.90;99.90;;;;;;4995225;28;20204;-84
2023/01/29 13:10:41;;;;;;;7.25;6.18;;;4.10;99.90;;;;;;4987336;28;21061;-84
2023/01/29 13:13:16;;;;;;;6.18;4.88;;;4.20;99.90;;;;;;4990811;28;20217;-84
2023/01/29 13:15:45;;;;;;;7.22;6.05;;;4.20;99.90;;;;;;4992856;28;20309;-84
2023/01/29 13:18:30;;;;;;;7.25;5.35;;;4.30;99.90;;;;;;4997690;28;20284;-84
2023/01/29 13:21:00;;;;;;;6.40;5.55;;;4.20;99.90;;;;;;4999724;28;20205;-84
2023/01/29 13:23:34;;;;;;;7.20;5.82;;;4.20;99.90;;;;;;4996192;28;20206;-85
2023/01/29 13:26:05;;;;;;;7.85;6.47;;;4.20;99.90;;;;;;4993762;28;20224;-84
2023/01/29 13:28:34;;;;;;;6.75;5.93;;;4.10;99.90;;;;;;4998504;28;20200;-84
2023/01/29 13:31:18;;;;;;;9.00;7.13;;;4.20;99.90;;;;;;4998697;28;20213;-84
2023/01/29 13:33:53;;;;;;;9.85;7.53;;;4.20;99.90;;;;;;4996085;28;20204;-84
2023/01/29 13:36:27;;;;;;;23.98;9.02;;;4.10;99.90;;;;;;4996753;28;20233;-84
2023/01/29 13:39:01;;;;;;;9.05;7.75;;;4.20;99.90;;;;;;4997721;28;20199;-84
2023/01/29 13:41:37;;;;;;;8.10;6.93;;;4.20;99.90;;;;;;4998805;28;20228;-82
2023/01/29 13:44:08;;;;;;;7.30;6.60;;;4.20;99.90;;;;;;4996992;28;20552;-81
2023/01/29 13:46:41;;;;;;;7.53;6.53;;;4.30;99.90;;;;;;4998628;28;20232;-84
2023/01/29 13:49:31;;;;;;;6.75;6.05;;;4.20;99.90;;;;;;4999202;28;20605;-84
2023/01/29 13:52:21;;;;;;;6.28;5.70;;;4.20;99.90;;;;;;5001803;28;20292;-84
2023/01/29 13:54:57;;;;;;;9.57;6.22;;;4.20;99.90;;;;;;4996507;28;20316;-84
2023/01/29 13:57:50;;;;;;;6.60;6.00;;;4.20;99.90;;;;;;4995323;28;20311;-84
2023/01/29 14:00:59;;;;;;;7.10;6.40;;;4.20;99.90;;;;;;5002086;28;20210;-85
2023/01/29 14:03:56;;;;;;;10.75;8.15;;;4.30;99.90;;;;;;4995757;28;20217;-84
2023/01/29 14:06:46;;;;;;;7.55;6.30;;;4.30;99.90;;;;;;4997555;28;20319;-84